sim
Sign-in with your pilot id or email,
or register
Callsign
Passwort

Schedule Details

Flight Number: OEO5946
Departure: Halifax Stanfield International Airport (CYHZ) at 21:50
Arrival: Munich Airport (EDDM) at 04:50

Weather Information
Getting current METAR information for CYHZ 010100Z 22013G19KT 10SM SCT008 BKN015 18/17 A2977 RMK SF4SC2 SLP084 DENSITY ALT 1100FT
Getting current METAR information for EDDM 010120Z 07001KT 1200 0500NE R08L/0500D R08R/1100D BCFG NSC 05/04 Q1011 BECMG 0600 FG

Schedule Frequency

Route Map